createdAt,value
2023-03-06T00:00:40.788Z,71.59
2023-03-06T00:03:19.034Z,71.74
2023-03-06T00:05:47.996Z,71.67
2023-03-06T00:08:17.159Z,72.03
2023-03-06T00:10:46.607Z,71.73
2023-03-06T00:13:19.199Z,71.75
2023-03-06T00:15:49.137Z,71.53
2023-03-06T00:18:17.704Z,71.64
2023-03-06T00:20:46.392Z,71.75
2023-03-06T00:23:15.759Z,71.51
2023-03-06T00:25:46.212Z,71.63
2023-03-06T00:28:16.096Z,71.79
2023-03-06T00:30:46.632Z,71.72
2023-03-06T00:33:15.225Z,71.95
2023-03-06T00:35:43.868Z,71.86
2023-03-06T00:38:15.254Z,71.86
2023-03-06T00:40:43.956Z,72.05
2023-03-06T00:43:12.869Z,71.74
2023-03-06T00:45:42.175Z,72.01
2023-03-06T00:48:10.797Z,72.28
2023-03-06T00:50:40.514Z,72.24
2023-03-06T00:53:11.672Z,72.30
2023-03-06T00:55:40.259Z,72.36
2023-03-06T00:58:08.827Z,71.86
2023-03-06T01:00:38.586Z,72.23
2023-03-06T01:03:08.336Z,72.10
2023-03-06T01:05:37.850Z,72.27
2023-03-06T01:08:09.386Z,72.25
2023-03-06T01:10:39.924Z,72.25
2023-03-06T01:13:09.049Z,72.47
2023-03-06T01:15:37.672Z,72.42
2023-03-06T01:18:06.443Z,72.11
2023-03-06T01:20:38.214Z,72.50
2023-03-06T01:23:07.412Z,72.34
2023-03-06T01:25:36.028Z,72.58
2023-03-06T01:28:05.349Z,72.67
2023-03-06T01:30:34.217Z,72.68
2023-03-06T01:33:03.093Z,72.75
2023-03-06T01:35:32.435Z,72.64
2023-03-06T01:38:01.247Z,72.67
2023-03-06T01:40:35.639Z,72.82
2023-03-06T01:43:27.098Z,72.91
2023-03-06T01:46:17.840Z,72.89
2023-03-06T01:48:48.865Z,72.90
2023-03-06T01:51:17.659Z,72.82
2023-03-06T01:53:47.643Z,73.00
2023-03-06T01:56:16.838Z,72.84
2023-03-06T01:58:46.537Z,72.72
2023-03-06T02:01:15.996Z,72.83
2023-03-06T02:03:47.933Z,73.12
2023-03-06T02:06:20.037Z,72.88
2023-03-06T02:08:52.368Z,73.26
2023-03-06T02:11:23.867Z,73.25
2023-03-06T02:13:55.366Z,73.02
2023-03-06T02:16:29.983Z,73.43
2023-03-06T02:19:02.484Z,73.24
2023-03-06T02:21:34.468Z,73.41
2023-03-06T02:24:30.050Z,73.28
2023-03-06T02:27:01.158Z,73.31
2023-03-06T02:29:31.435Z,73.43
2023-03-06T02:32:02.143Z,73.47
2023-03-06T02:34:30.852Z,73.52
2023-03-06T02:37:05.874Z,73.70
2023-03-06T02:39:39.724Z,73.22
2023-03-06T02:42:09.037Z,73.33
2023-03-06T02:44:37.993Z,73.32
2023-03-06T02:47:08.063Z,73.33
2023-03-06T02:49:36.682Z,73.35
2023-03-06T02:52:08.066Z,73.38
2023-03-06T02:54:36.749Z,73.67
2023-03-06T02:57:05.709Z,73.47
2023-03-06T02:59:35.145Z,73.43
2023-03-06T03:02:04.087Z,73.49
2023-03-06T03:04:33.056Z,73.66
2023-03-06T03:07:02.710Z,73.61
2023-03-06T03:09:37.516Z,73.57
2023-03-06T03:12:07.551Z,73.74
2023-03-06T03:14:36.255Z,73.95
2023-03-06T03:17:05.458Z,73.84
2023-03-06T03:19:34.797Z,73.80
2023-03-06T03:22:03.450Z,73.82
2023-03-06T03:24:32.467Z,74.06
2023-03-06T03:27:02.958Z,73.99
2023-03-06T03:29:32.632Z,74.35
2023-03-06T03:32:01.829Z,74.38
2023-03-06T03:34:30.982Z,74.23
2023-03-06T03:36:59.604Z,74.41
2023-03-06T03:39:28.560Z,74.35
2023-03-06T03:41:59.108Z,74.48
2023-03-06T03:44:28.369Z,74.23
2023-03-06T03:46:57.791Z,74.67
2023-03-06T03:49:26.797Z,74.53
2023-03-06T03:51:55.665Z,74.82
2023-03-06T03:54:25.076Z,74.69
2023-03-06T03:56:54.489Z,74.55
2023-03-06T03:59:27.195Z,74.57
2023-03-06T04:02:05.966Z,74.51
2023-03-06T04:04:39.108Z,74.47
2023-03-06T04:07:08.801Z,74.69
2023-03-06T04:09:38.282Z,74.69
2023-03-06T04:12:08.319Z,74.95
2023-03-06T04:14:38.308Z,74.91
2023-03-06T04:17:07.224Z,74.70
2023-03-06T04:19:36.311Z,74.81
2023-03-06T04:22:05.353Z,74.65
2023-03-06T04:24:34.623Z,74.80
2023-03-06T04:27:04.514Z,74.84
2023-03-06T04:29:33.483Z,75.11
2023-03-06T04:32:02.868Z,75.25
2023-03-06T04:34:32.122Z,75.17
2023-03-06T04:37:01.204Z,75.10
2023-03-06T04:39:30.377Z,75.29
2023-03-06T04:41:59.314Z,75.49
2023-03-06T04:44:28.688Z,75.22
2023-03-06T04:46:58.682Z,75.52
2023-03-06T04:49:27.542Z,75.37
2023-03-06T04:51:56.441Z,75.30
2023-03-06T04:54:25.125Z,75.22
2023-03-06T04:56:53.989Z,75.20
2023-03-06T04:59:23.033Z,75.14
2023-03-06T05:01:51.962Z,75.05
2023-03-06T05:04:21.305Z,75.09
2023-03-06T05:06:50.192Z,75.19
2023-03-06T05:09:18.746Z,75.00
2023-03-06T05:11:47.958Z,75.29
2023-03-06T05:14:16.645Z,75.13
2023-03-06T05:16:47.680Z,75.12
2023-03-06T05:19:17.011Z,75.33
2023-03-06T05:21:45.686Z,75.29
2023-03-06T05:24:14.262Z,75.09
2023-03-06T05:26:43.565Z,75.16
2023-03-06T05:29:12.175Z,74.97
2023-03-06T05:31:40.756Z,75.16
2023-03-06T05:34:13.856Z,74.93
2023-03-06T05:36:43.206Z,75.04
2023-03-06T05:39:11.965Z,74.96
2023-03-06T05:41:40.902Z,75.10
2023-03-06T05:44:09.908Z,74.96
2023-03-06T05:46:38.813Z,74.97
2023-03-06T05:49:07.589Z,75.13
2023-03-06T05:51:36.477Z,75.00
2023-03-06T05:54:05.040Z,75.21
2023-03-06T05:56:33.776Z,74.97
2023-03-06T05:59:03.520Z,75.09
2023-03-06T06:01:32.146Z,74.96
2023-03-06T06:04:01.228Z,74.95
2023-03-06T06:06:30.405Z,75.31
2023-03-06T06:08:58.952Z,75.08
2023-03-06T06:11:27.809Z,75.04
2023-03-06T06:13:56.772Z,75.05
2023-03-06T06:16:25.284Z,74.93
2023-03-06T06:18:54.282Z,75.26
2023-03-06T06:21:23.175Z,74.94
2023-03-06T06:23:51.805Z,75.03
2023-03-06T06:26:20.537Z,75.10
2023-03-06T06:28:49.758Z,74.99
2023-03-06T06:31:19.103Z,74.90
2023-03-06T06:33:47.926Z,74.82
2023-03-06T06:36:19.676Z,74.71
2023-03-06T06:38:50.238Z,74.70
2023-03-06T06:41:53.084Z,74.93
2023-03-06T06:44:11.790Z,74.93
2023-03-06T06:49:30.438Z,75.22
2023-03-06T06:51:59.757Z,75.19
2023-03-06T06:54:28.485Z,75.30
2023-03-06T06:56:57.184Z,75.14
2023-03-06T06:59:26.248Z,74.93
2023-03-06T07:01:54.810Z,75.10
2023-03-06T07:04:24.055Z,75.18
2023-03-06T07:06:59.054Z,75.16
2023-03-06T07:09:28.375Z,75.02
2023-03-06T07:11:58.481Z,75.18
2023-03-06T07:14:27.598Z,75.13
2023-03-06T07:16:56.738Z,75.18
2023-03-06T07:19:25.721Z,75.08
2023-03-06T07:21:54.394Z,75.15
2023-03-06T07:24:23.699Z,74.97
2023-03-06T07:26:52.741Z,75.10
2023-03-06T07:29:21.351Z,75.00
2023-03-06T07:31:50.513Z,75.06
2023-03-06T07:34:19.366Z,74.97
2023-03-06T07:36:47.950Z,75.15
2023-03-06T07:39:17.041Z,75.08
2023-03-06T07:41:46.355Z,75.10
2023-03-06T07:44:14.922Z,75.20
2023-03-06T07:46:44.067Z,75.20
2023-03-06T07:49:13.661Z,75.07
2023-03-06T07:51:42.376Z,75.26
2023-03-06T07:54:11.552Z,75.10
2023-03-06T07:56:40.509Z,75.00
2023-03-06T07:59:11.103Z,75.17
2023-03-06T08:01:40.695Z,75.14
2023-03-06T08:04:09.671Z,75.12
2023-03-06T08:06:38.269Z,75.03
2023-03-06T08:09:07.415Z,75.01
2023-03-06T08:11:36.701Z,75.02
2023-03-06T08:14:34.504Z,74.96
2023-03-06T08:17:06.562Z,74.81
2023-03-06T08:19:35.483Z,74.78
2023-03-06T08:22:06.250Z,74.98
2023-03-06T08:24:35.177Z,74.90
2023-03-06T08:27:03.912Z,74.78
2023-03-06T08:29:32.683Z,74.80
2023-03-06T08:32:01.563Z,74.90
2023-03-06T08:34:30.338Z,74.87
2023-03-06T08:36:59.094Z,74.78
2023-03-06T08:39:28.168Z,74.70
2023-03-06T08:41:56.780Z,74.66
2023-03-06T08:44:25.428Z,74.65
2023-03-06T08:46:54.279Z,74.49
2023-03-06T08:49:22.879Z,74.62
2023-03-06T08:51:51.523Z,74.37
2023-03-06T08:54:20.747Z,74.20
2023-03-06T08:56:49.387Z,74.47
2023-03-06T08:59:18.298Z,74.39
2023-03-06T09:01:47.392Z,74.05
2023-03-06T09:04:15.966Z,74.14
2023-03-06T09:06:45.700Z,73.93
2023-03-06T09:09:14.762Z,73.97
2023-03-06T09:11:43.418Z,73.78
2023-03-06T09:14:12.249Z,73.65
2023-03-06T09:16:41.623Z,73.58
2023-03-06T09:19:10.371Z,73.41
2023-03-06T09:21:48.823Z,73.50
2023-03-06T09:24:24.159Z,73.47
2023-03-06T09:26:52.900Z,73.38
2023-03-06T09:29:22.181Z,73.32
2023-03-06T09:31:51.058Z,73.34
2023-03-06T09:34:20.072Z,73.19
2023-03-06T09:36:56.917Z,72.95
2023-03-06T09:39:27.621Z,72.74
2023-03-06T09:41:58.505Z,72.61
2023-03-06T09:44:34.397Z,72.49
2023-03-06T09:47:45.878Z,72.69
2023-03-06T09:50:29.880Z,72.55
2023-03-06T09:53:20.461Z,72.51
2023-03-06T09:55:58.598Z,72.08
2023-03-06T09:58:30.054Z,71.94
2023-03-06T10:01:11.691Z,71.53
2023-03-06T10:03:54.959Z,71.68
2023-03-06T10:06:23.924Z,71.36
2023-03-06T10:09:13.524Z,71.05
2023-03-06T10:11:47.610Z,71.14
2023-03-06T10:14:40.617Z,71.01
2023-03-06T10:17:17.379Z,71.11
2023-03-06T10:19:49.698Z,70.72
2023-03-06T10:22:46.102Z,70.74
2023-03-06T10:25:24.733Z,70.72
2023-03-06T10:28:11.884Z,70.44
2023-03-06T10:30:43.657Z,69.86
2023-03-06T10:36:29.515Z,69.06
2023-03-06T10:38:59.227Z,68.66
2023-03-06T10:41:32.636Z,69.42
2023-03-06T10:44:01.380Z,69.39
2023-03-06T10:46:31.548Z,68.80
2023-03-06T10:49:23.728Z,68.30
2023-03-06T10:52:26.132Z,67.94
2023-03-06T10:55:24.015Z,67.08
2023-03-06T10:57:52.840Z,66.51
2023-03-06T11:00:32.172Z,65.89
2023-03-06T11:03:24.856Z,66.31
2023-03-06T11:06:02.703Z,66.20
2023-03-06T11:08:31.866Z,66.29
2023-03-06T11:11:07.515Z,66.17
2023-03-06T11:13:39.567Z,66.06
2023-03-06T11:16:19.346Z,65.87
2023-03-06T11:19:18.968Z,66.24
2023-03-06T11:22:20.467Z,65.98
2023-03-06T11:24:53.947Z,65.34
2023-03-06T11:27:35.034Z,65.45
2023-03-06T11:30:09.470Z,65.60
2023-03-06T11:32:46.666Z,65.29
2023-03-06T11:35:28.648Z,65.52
2023-03-06T11:38:27.317Z,65.54
2023-03-06T11:41:01.749Z,65.25
2023-03-06T11:43:35.430Z,65.20
2023-03-06T11:46:26.530Z,64.95
2023-03-06T11:49:10.500Z,64.77
2023-03-06T11:51:48.503Z,64.85
2023-03-06T11:54:17.417Z,64.93
2023-03-06T11:57:18.494Z,64.46
2023-03-06T12:00:17.684Z,64.64
2023-03-06T12:02:58.417Z,64.45
2023-03-06T12:05:32.206Z,64.15
2023-03-06T12:08:39.210Z,64.32
2023-03-06T12:11:26.746Z,64.42
2023-03-06T12:14:10.537Z,64.36
2023-03-06T12:16:39.737Z,64.26
2023-03-06T12:19:30.301Z,64.38
2023-03-06T12:22:14.234Z,64.41
2023-03-06T12:25:09.794Z,64.40
2023-03-06T12:28:15.411Z,64.11
2023-03-06T12:31:18.391Z,63.98
2023-03-06T12:34:26.193Z,64.15
2023-03-06T12:37:01.662Z,64.21
2023-03-06T12:40:07.144Z,64.05
2023-03-06T12:43:10.625Z,63.92
2023-03-06T12:45:41.293Z,63.88
2023-03-06T12:48:18.211Z,63.57
2023-03-06T12:50:48.457Z,63.56
2023-03-06T12:53:32.377Z,63.62
2023-03-06T12:56:02.952Z,63.41
2023-03-06T12:58:31.653Z,63.17
2023-03-06T13:01:20.560Z,63.45
2023-03-06T13:03:58.014Z,63.40
2023-03-06T13:07:04.771Z,63.42
2023-03-06T13:09:55.378Z,63.55
2023-03-06T13:12:42.899Z,63.21
2023-03-06T13:15:42.576Z,62.68
2023-03-06T13:18:23.742Z,62.96
2023-03-06T13:20:56.656Z,63.09
2023-03-06T13:23:34.740Z,62.90
2023-03-06T13:29:38.628Z,63.07
2023-03-06T13:32:18.739Z,62.78
2023-03-06T13:34:49.534Z,63.11
2023-03-06T13:37:18.901Z,62.95
2023-03-06T13:40:00.669Z,62.47
2023-03-06T13:42:37.474Z,62.52
2023-03-06T13:45:08.910Z,62.86
2023-03-06T13:48:22.643Z,62.80
2023-03-06T13:50:52.226Z,62.91
2023-03-06T13:53:33.782Z,62.81
2023-03-06T13:56:17.748Z,62.61
2023-03-06T13:59:00.815Z,62.43
2023-03-06T14:01:47.188Z,62.39
2023-03-06T14:04:33.129Z,62.71
2023-03-06T14:07:22.282Z,62.74
2023-03-06T14:10:21.502Z,62.84
2023-03-06T14:12:50.203Z,62.47
2023-03-06T14:15:26.504Z,62.28
2023-03-06T14:18:06.423Z,62.43
2023-03-06T14:20:39.671Z,62.59
2023-03-06T14:23:17.030Z,62.51
2023-03-06T14:25:47.633Z,62.52
2023-03-06T14:28:25.481Z,62.37
2023-03-06T14:30:56.261Z,62.53
2023-03-06T14:33:32.669Z,62.28
2023-03-06T14:36:04.565Z,62.02
2023-03-06T14:38:38.406Z,62.03
2023-03-06T14:41:12.386Z,61.80
2023-03-06T14:43:42.081Z,62.01
2023-03-06T14:46:22.488Z,61.99
2023-03-06T14:48:52.801Z,61.50
2023-03-06T14:51:23.432Z,61.42
2023-03-06T14:54:01.314Z,61.72
2023-03-06T14:56:35.551Z,61.39
2023-03-06T14:59:22.673Z,61.62
2023-03-06T15:01:58.829Z,61.11
2023-03-06T15:04:47.284Z,61.17
2023-03-06T15:07:30.825Z,61.36
2023-03-06T15:10:00.944Z,61.38
2023-03-06T15:12:34.226Z,61.42
2023-03-06T15:15:11.429Z,61.27
2023-03-06T15:17:41.071Z,61.08
2023-03-06T15:20:47.264Z,61.03
2023-03-06T15:23:21.647Z,60.99
2023-03-06T15:25:56.850Z,60.90
2023-03-06T15:28:39.826Z,60.88
2023-03-06T15:31:13.326Z,60.68
2023-03-06T15:33:42.175Z,60.88
2023-03-06T15:36:21.835Z,60.78
2023-03-06T15:38:51.324Z,60.69
2023-03-06T15:41:29.032Z,60.75
2023-03-06T15:44:03.101Z,60.72
2023-03-06T15:46:32.125Z,60.61
2023-03-06T15:49:05.252Z,60.52
2023-03-06T15:51:34.338Z,60.69
2023-03-06T15:54:11.895Z,60.84
2023-03-06T15:56:45.334Z,60.70
2023-03-06T15:59:24.185Z,60.70
2023-03-06T16:01:53.769Z,60.68
2023-03-06T16:04:22.712Z,60.52
2023-03-06T16:06:51.376Z,60.34
2023-03-06T16:09:20.261Z,60.46
2023-03-06T16:11:49.269Z,60.30
2023-03-06T16:14:21.808Z,60.34
2023-03-06T16:16:54.471Z,60.30
2023-03-06T16:19:27.425Z,60.40
2023-03-06T16:21:57.328Z,60.54
2023-03-06T16:24:27.085Z,60.34
2023-03-06T16:26:59.259Z,60.44
2023-03-06T16:29:29.863Z,60.35
2023-03-06T16:31:59.313Z,60.43
2023-03-06T16:34:30.990Z,60.39
2023-03-06T16:36:59.855Z,60.39
2023-03-06T16:39:28.704Z,60.52
2023-03-06T16:41:57.519Z,60.54
2023-03-06T16:44:26.280Z,60.51
2023-03-06T16:46:54.889Z,60.48
2023-03-06T16:49:25.441Z,60.46
2023-03-06T16:51:54.986Z,60.47
2023-03-06T16:54:26.443Z,60.42
2023-03-06T16:56:57.896Z,60.27
2023-03-06T16:59:32.191Z,60.32
2023-03-06T17:02:33.161Z,60.47
2023-03-06T17:05:12.572Z,60.54
2023-03-06T17:11:16.978Z,60.69
2023-03-06T17:13:49.473Z,60.66
2023-03-06T17:20:13.334Z,60.79
2023-03-06T17:22:42.373Z,60.74
2023-03-06T17:25:11.854Z,60.78
2023-03-06T17:27:40.741Z,60.50
2023-03-06T17:30:13.568Z,60.61
2023-03-06T17:32:42.721Z,60.60
2023-03-06T17:35:11.619Z,60.41
2023-03-06T17:37:40.448Z,60.54
2023-03-06T17:40:10.677Z,60.34
2023-03-06T17:42:39.468Z,60.43
2023-03-06T17:45:12.152Z,60.72
2023-03-06T17:47:40.960Z,60.79
2023-03-06T17:50:13.593Z,60.92
2023-03-06T17:52:42.844Z,60.60
2023-03-06T17:55:11.673Z,60.53
2023-03-06T17:57:42.755Z,60.55
2023-03-06T18:00:12.061Z,60.68
2023-03-06T18:02:57.224Z,60.85
2023-03-06T18:05:46.314Z,60.94
2023-03-06T18:08:39.229Z,60.96
2023-03-06T18:11:25.243Z,61.01
2023-03-06T18:14:15.935Z,61.02
2023-03-06T18:17:08.382Z,61.13
2023-03-06T18:19:53.826Z,61.17
2023-03-06T18:22:42.827Z,61.29
2023-03-06T18:25:38.806Z,61.35
2023-03-06T18:28:35.200Z,61.34
2023-03-06T18:31:34.394Z,61.38
2023-03-06T18:34:23.535Z,61.48
2023-03-06T18:37:25.155Z,61.43
2023-03-06T18:40:22.367Z,61.33
2023-03-06T18:43:06.914Z,61.43
2023-03-06T18:45:36.434Z,61.47
2023-03-06T18:48:06.412Z,61.45
2023-03-06T18:50:39.136Z,61.40
2023-03-06T18:53:08.509Z,61.32
2023-03-06T18:55:37.686Z,61.33
2023-03-06T18:58:06.655Z,61.30
2023-03-06T19:00:35.889Z,61.51
2023-03-06T19:03:04.705Z,61.53
2023-03-06T19:05:33.815Z,61.63
2023-03-06T19:08:03.407Z,61.51
2023-03-06T19:10:38.417Z,61.70
2023-03-06T19:13:08.519Z,61.95
2023-03-06T19:15:48.592Z,61.96
2023-03-06T19:18:18.309Z,62.18
2023-03-06T19:20:46.924Z,62.16
2023-03-06T19:23:15.849Z,62.20
2023-03-06T19:25:55.069Z,62.22
2023-03-06T19:28:23.849Z,62.12
2023-03-06T19:30:53.302Z,62.08
2023-03-06T19:33:22.042Z,62.22
2023-03-06T19:35:51.354Z,62.13
2023-03-06T19:38:20.575Z,61.88
2023-03-06T19:40:51.793Z,62.14
2023-03-06T19:43:20.984Z,62.35
2023-03-06T19:45:49.655Z,62.25
2023-03-06T19:48:18.535Z,62.22
2023-03-06T19:50:47.769Z,62.41
2023-03-06T19:53:17.166Z,62.63
2023-03-06T19:55:46.087Z,62.70
2023-03-06T19:58:15.665Z,62.47
2023-03-06T20:00:45.074Z,62.60
2023-03-06T20:03:17.611Z,62.17
2023-03-06T20:05:50.756Z,62.36
2023-03-06T20:08:19.302Z,62.57
2023-03-06T20:10:48.462Z,62.56
2023-03-06T20:13:18.861Z,62.59
2023-03-06T20:15:47.477Z,62.58
2023-03-06T20:18:16.683Z,62.66
2023-03-06T20:20:45.982Z,62.69
2023-03-06T20:23:16.578Z,62.68
2023-03-06T20:25:48.754Z,62.85
2023-03-06T20:28:17.316Z,62.91
2023-03-06T20:30:46.452Z,62.75
2023-03-06T20:33:17.122Z,62.91
2023-03-06T20:35:45.782Z,63.12
2023-03-06T20:38:14.778Z,63.21
2023-03-06T20:40:44.547Z,63.18
2023-03-06T20:43:13.333Z,63.26
2023-03-06T20:45:41.918Z,63.34
2023-03-06T20:48:10.968Z,63.34
2023-03-06T20:50:39.559Z,63.49
2023-03-06T20:53:08.171Z,63.53
2023-03-06T20:55:38.301Z,63.57
2023-03-06T20:58:07.174Z,63.78
2023-03-06T21:00:36.102Z,63.87
2023-03-06T21:03:06.074Z,63.87
2023-03-06T21:05:34.988Z,63.81
2023-03-06T21:08:03.622Z,63.75
2023-03-06T21:10:33.094Z,63.82
2023-03-06T21:13:01.636Z,63.69
2023-03-06T21:15:31.275Z,63.72
2023-03-06T21:18:00.312Z,63.60
2023-03-06T21:20:28.840Z,63.96
2023-03-06T21:22:58.061Z,63.99
2023-03-06T21:25:27.588Z,64.15
2023-03-06T21:27:56.657Z,64.28
2023-03-06T21:30:25.505Z,64.49
2023-03-06T21:32:54.858Z,64.51
2023-03-06T21:35:23.486Z,64.57
2023-03-06T21:37:52.197Z,64.54
2023-03-06T21:40:21.642Z,64.63
2023-03-06T21:42:50.173Z,64.66
2023-03-06T21:45:19.145Z,64.71
2023-03-06T21:47:49.349Z,64.51
2023-03-06T21:50:18.272Z,64.76
2023-03-06T21:52:46.852Z,64.54
2023-03-06T21:55:16.442Z,64.88
2023-03-06T21:57:50.509Z,64.81
2023-03-06T22:00:20.563Z,65.06
2023-03-06T22:02:49.768Z,64.91
2023-03-06T22:05:18.928Z,64.93
2023-03-06T22:07:47.827Z,64.99
2023-03-06T22:10:16.457Z,65.06
2023-03-06T22:12:46.908Z,65.16
2023-03-06T22:15:16.196Z,65.35
2023-03-06T22:17:45.629Z,65.49
2023-03-06T22:20:14.288Z,65.43
2023-03-06T22:22:44.384Z,65.30
2023-03-06T22:25:15.147Z,65.42
2023-03-06T22:27:43.796Z,65.38
2023-03-06T22:30:13.662Z,65.47
2023-03-06T22:32:42.563Z,65.51
2023-03-06T22:35:11.826Z,65.64
2023-03-06T22:37:40.692Z,65.69
2023-03-06T22:40:10.164Z,65.63
2023-03-06T22:42:39.011Z,65.88
2023-03-06T22:45:08.895Z,65.86
2023-03-06T22:47:38.186Z,65.72
2023-03-06T22:50:08.722Z,66.02
2023-03-06T22:52:37.505Z,66.03
2023-03-06T22:55:06.917Z,65.94
2023-03-06T22:57:36.330Z,65.83
2023-03-06T23:00:05.376Z,65.66
2023-03-06T23:02:35.421Z,65.88
2023-03-06T23:05:04.834Z,66.20
2023-03-06T23:07:33.742Z,66.07
2023-03-06T23:10:07.073Z,66.39
2023-03-06T23:12:54.783Z,66.28
2023-03-06T23:15:41.924Z,66.21
2023-03-06T23:18:30.396Z,66.32
2023-03-06T23:21:19.495Z,66.41
2023-03-06T23:24:08.055Z,66.42
2023-03-06T23:26:37.406Z,66.44
2023-03-06T23:29:06.059Z,66.42
2023-03-06T23:31:35.174Z,66.61
2023-03-06T23:34:04.341Z,66.62
2023-03-06T23:36:32.940Z,66.74
2023-03-06T23:39:02.238Z,66.73
2023-03-06T23:41:31.210Z,66.61
2023-03-06T23:44:00.130Z,66.62
2023-03-06T23:46:28.893Z,66.62
2023-03-06T23:48:57.483Z,66.77
2023-03-06T23:51:26.398Z,66.88
2023-03-06T23:53:59.073Z,66.85
2023-03-06T23:56:28.855Z,66.96
2023-03-06T23:58:57.605Z,66.93
